Time;durP1;ratioP1;P1;durP2;ratioP2;P2;SDS_P1;SDS_P2;PMS_P1;PMS_P2;Temp;Humidity;BMP_temperature;BMP_pressure;BME280_temperature;BME280_humidity;BME280_pressure;Samples;Min_cycle;Max_cycle;Signal;HPM_P1;HPM_P2
2023/05/18 00:01:09;;;;;;;1.10;0.60;;;19.00;54.90;;;;;;5078826;28;20164;-81
2023/05/18 00:03:35;;;;;;;1.08;0.80;;;19.00;55.60;;;;;;5113778;28;20180;-81
2023/05/18 00:06:03;;;;;;;0.73;0.60;;;19.00;55.00;;;;;;5079685;28;20669;-81
2023/05/18 00:08:30;;;;;;;1.02;0.63;;;19.00;55.00;;;;;;5096448;28;20179;-81
2023/05/18 00:10:56;;;;;;;0.57;0.50;;;19.00;55.00;;;;;;5095512;28;20616;-80
2023/05/18 00:13:22;;;;;;;0.75;0.60;;;19.00;55.00;;;;;;5079430;28;20255;-81
2023/05/18 00:15:47;;;;;;;0.70;0.57;;;19.00;55.00;;;;;;5095590;28;20184;-81
2023/05/18 00:18:13;;;;;;;1.40;0.60;;;19.00;54.90;;;;;;5095529;28;20159;-80
2023/05/18 00:20:38;;;;;;;0.63;0.60;;;19.00;54.90;;;;;;5095695;28;20183;-82
2023/05/18 00:23:05;;;;;;;0.45;0.45;;;19.00;55.00;;;;;;5078381;28;20231;-81
2023/05/18 00:25:30;;;;;;;0.85;0.75;;;19.00;55.00;;;;;;5113737;28;20543;-81
2023/05/18 00:27:56;;;;;;;0.77;0.65;;;19.00;55.00;;;;;;5095577;28;20163;-80
2023/05/18 00:30:24;;;;;;;0.50;0.50;;;19.00;55.00;;;;;;5113603;28;20640;-81
2023/05/18 00:32:50;;;;;;;0.77;0.50;;;19.00;55.00;;;;;;5095649;28;20258;-81
2023/05/18 00:35:16;;;;;;;0.80;0.60;;;19.00;55.00;;;;;;5095321;28;20263;-81
2023/05/18 00:37:41;;;;;;;0.60;0.50;;;19.00;55.10;;;;;;5096147;28;20172;-81
2023/05/18 00:40:07;;;;;;;0.88;0.80;;;19.00;55.10;;;;;;5095564;28;20171;-81
2023/05/18 00:42:33;;;;;;;0.50;0.50;;;19.00;55.10;;;;;;5095349;28;20230;-81
2023/05/18 00:44:59;;;;;;;0.95;0.70;;;19.00;55.10;;;;;;5095368;28;20171;-81
2023/05/18 00:47:26;;;;;;;0.57;0.57;;;19.00;55.00;;;;;;5078376;28;20637;-81
2023/05/18 00:49:52;;;;;;;1.00;0.60;;;19.00;55.10;;;;;;5096034;28;20172;-82
2023/05/18 00:52:17;;;;;;;0.65;0.65;;;19.00;55.00;;;;;;5117492;28;20160;-82
2023/05/18 00:54:43;;;;;;;0.68;0.60;;;19.00;55.10;;;;;;5099276;28;20163;-82
2023/05/18 00:57:08;;;;;;;0.60;0.60;;;18.90;55.20;;;;;;5099238;28;20231;-80
2023/05/18 00:59:34;;;;;;;0.90;0.60;;;18.90;55.10;;;;;;5099044;28;20217;-81
2023/05/18 01:02:00;;;;;;;0.60;0.60;;;18.90;55.10;;;;;;5117197;28;20187;-80
2023/05/18 01:04:26;;;;;;;0.75;0.70;;;18.90;55.20;;;;;;5099203;28;20201;-81
2023/05/18 01:06:55;;;;;;;0.68;0.60;;;18.90;55.10;;;;;;5082108;28;20160;-81
2023/05/18 01:09:20;;;;;;;0.90;0.68;;;19.00;55.00;;;;;;5082646;28;20171;-81
2023/05/18 01:12:16;;;;;;;1.10;0.65;;;19.00;55.10;;;;;;5117126;28;20156;-81
2023/05/18 01:14:53;;;;;;;0.90;0.65;;;18.90;55.10;;;;;;5102095;28;20614;-81
2023/05/18 01:17:38;;;;;;;0.65;0.50;;;19.00;55.20;;;;;;5098834;28;20156;-81
2023/05/18 01:20:15;;;;;;;0.68;0.68;;;18.90;55.10;;;;;;5081886;28;20234;-81
2023/05/18 01:23:08;;;;;;;0.65;0.65;;;18.90;55.10;;;;;;5117124;28;20211;-81
2023/05/18 01:26:11;;;;;;;0.60;0.60;;;18.90;55.10;;;;;;5100463;28;20148;-81
2023/05/18 01:28:37;;;;;;;0.63;0.63;;;18.90;55.10;;;;;;5084504;28;20717;-81
2023/05/18 01:31:03;;;;;;;0.65;0.65;;;18.90;55.20;;;;;;5098574;28;20231;-81
2023/05/18 01:33:28;;;;;;;0.80;0.70;;;19.00;55.20;;;;;;5116667;28;20164;-81
2023/05/18 01:35:54;;;;;;;0.68;0.52;;;18.90;55.20;;;;;;5116681;28;20240;-81
2023/05/18 01:38:22;;;;;;;0.60;0.60;;;18.90;55.30;;;;;;5116550;28;20530;-81
2023/05/18 01:41:01;;;;;;;1.05;0.80;;;18.90;55.20;;;;;;5081749;28;20173;-81
2023/05/18 01:43:31;;;;;;;0.85;0.70;;;18.90;55.20;;;;;;5098629;28;20187;-81
2023/05/18 01:45:59;;;;;;;0.85;0.55;;;18.90;55.20;;;;;;5098501;28;20148;-80
2023/05/18 01:48:25;;;;;;;0.63;0.47;;;18.90;55.20;;;;;;5098288;28;20164;-80
2023/05/18 01:50:52;;;;;;;0.40;0.40;;;18.90;55.20;;;;;;5081297;28;20251;-80
2023/05/18 01:53:23;;;;;;;0.50;0.50;;;18.90;55.10;;;;;;5098584;28;20164;-81
2023/05/18 01:55:49;;;;;;;0.50;0.50;;;18.90;55.10;;;;;;5098154;28;20152;-81
2023/05/18 01:58:15;;;;;;;0.40;0.40;;;18.90;55.10;;;;;;5098010;28;20192;-81
2023/05/18 02:00:41;;;;;;;0.50;0.50;;;18.90;55.20;;;;;;5116005;28;20163;-81
2023/05/18 02:03:07;;;;;;;0.68;0.60;;;18.90;55.20;;;;;;5116159;28;20232;-82
2023/05/18 02:05:32;;;;;;;0.50;0.50;;;18.90;55.20;;;;;;5097982;28;20496;-81
2023/05/18 02:07:58;;;;;;;1.48;0.63;;;18.90;55.20;;;;;;5081070;28;20512;-81
2023/05/18 02:10:24;;;;;;;0.70;0.65;;;18.90;55.10;;;;;;5080982;28;20525;-82
2023/05/18 02:12:51;;;;;;;0.93;0.60;;;18.90;55.20;;;;;;5097662;28;20171;-82
2023/05/18 02:15:17;;;;;;;0.65;0.55;;;18.90;55.30;;;;;;5098172;28;20156;-82
2023/05/18 02:17:42;;;;;;;0.88;0.70;;;18.90;55.30;;;;;;5081332;28;20632;-82
2023/05/18 02:20:08;;;;;;;0.60;0.60;;;18.80;55.10;;;;;;5097987;28;20233;-82
2023/05/18 02:22:35;;;;;;;0.50;0.50;;;18.90;55.30;;;;;;5115476;28;20212;-81
2023/05/18 02:25:01;;;;;;;0.50;0.50;;;18.90;55.20;;;;;;5115709;28;20151;-81
2023/05/18 02:27:27;;;;;;;1.15;0.50;;;18.90;55.20;;;;;;5097544;28;20148;-81
2023/05/18 02:29:53;;;;;;;1.25;0.60;;;18.90;55.20;;;;;;5097519;28;20176;-82
2023/05/18 02:32:19;;;;;;;0.60;0.60;;;18.90;55.30;;;;;;5097430;28;20149;-82
2023/05/18 02:34:45;;;;;;;1.10;1.00;;;18.90;55.30;;;;;;5115847;28;20156;-81
2023/05/18 02:37:12;;;;;;;0.82;0.70;;;18.90;55.30;;;;;;5080410;28;20577;-82
2023/05/18 02:39:38;;;;;;;0.80;0.80;;;18.80;55.20;;;;;;5080428;28;20164;-82
2023/05/18 02:42:04;;;;;;;0.90;0.60;;;18.90;55.30;;;;;;5080376;28;20192;-82
2023/05/18 02:44:30;;;;;;;0.55;0.50;;;18.90;55.30;;;;;;5115758;28;20231;-82
2023/05/18 02:46:56;;;;;;;0.75;0.60;;;18.90;55.20;;;;;;5115493;28;20156;-82
2023/05/18 02:49:21;;;;;;;0.82;0.80;;;18.90;55.30;;;;;;5097040;28;20164;-82
2023/05/18 02:51:47;;;;;;;0.68;0.63;;;18.90;55.30;;;;;;5080054;28;20180;-82
2023/05/18 02:54:12;;;;;;;0.57;0.55;;;18.90;55.40;;;;;;5096941;28;20156;-82
2023/05/18 02:56:40;;;;;;;0.50;0.50;;;18.80;55.40;;;;;;5096826;28;20148;-82
2023/05/18 02:59:06;;;;;;;0.80;0.65;;;18.80;55.40;;;;;;5096969;28;20152;-82
2023/05/18 03:01:33;;;;;;;1.00;0.70;;;18.90;55.40;;;;;;5079810;28;20182;-82
2023/05/18 03:03:59;;;;;;;0.60;0.60;;;18.90;55.30;;;;;;5080352;28;20532;-82
2023/05/18 03:06:25;;;;;;;0.60;0.60;;;18.90;55.40;;;;;;5096737;28;20235;-81
2023/05/18 03:08:55;;;;;;;1.13;0.70;;;18.90;55.30;;;;;;5097234;28;20167;-82
2023/05/18 03:11:21;;;;;;;0.55;0.52;;;18.80;55.40;;;;;;5097435;28;20235;-82
2023/05/18 03:13:47;;;;;;;0.50;0.40;;;18.80;55.30;;;;;;5095818;28;20226;-82
2023/05/18 03:16:13;;;;;;;0.57;0.50;;;18.90;55.30;;;;;;5114686;28;20164;-81
2023/05/18 03:18:39;;;;;;;0.55;0.52;;;18.90;55.30;;;;;;5080434;28;20168;-82
2023/05/18 03:21:05;;;;;;;0.50;0.50;;;18.90;55.40;;;;;;5096220;28;20158;-82
2023/05/18 03:23:30;;;;;;;0.50;0.50;;;18.90;55.30;;;;;;5079838;28;20191;-81
2023/05/18 03:25:56;;;;;;;0.60;0.60;;;18.90;55.20;;;;;;5114505;28;20683;-82
2023/05/18 03:28:22;;;;;;;0.50;0.50;;;18.90;55.20;;;;;;5096198;28;20164;-82
2023/05/18 03:30:47;;;;;;;0.80;0.60;;;18.90;55.20;;;;;;5080128;28;20156;-82
2023/05/18 03:33:13;;;;;;;0.73;0.45;;;18.90;55.30;;;;;;5079297;28;20202;-82
2023/05/18 03:35:39;;;;;;;0.63;0.63;;;18.90;55.10;;;;;;5096332;28;20240;-81
2023/05/18 03:38:06;;;;;;;0.88;0.63;;;18.90;55.20;;;;;;5096288;28;20634;-81
2023/05/18 03:40:32;;;;;;;0.73;0.50;;;18.90;55.20;;;;;;5079282;28;20309;-82
2023/05/18 03:42:57;;;;;;;0.70;0.50;;;18.90;55.10;;;;;;5095933;28;20274;-81
2023/05/18 03:45:23;;;;;;;0.50;0.50;;;19.00;55.20;;;;;;5079242;28;20232;-81
2023/05/18 03:47:49;;;;;;;0.70;0.70;;;18.90;55.10;;;;;;5096356;28;20566;-81
2023/05/18 03:50:15;;;;;;;0.60;0.60;;;18.90;55.00;;;;;;5095971;28;20550;-82
2023/05/18 03:52:43;;;;;;;0.57;0.57;;;18.90;55.00;;;;;;5079172;28;20530;-82
2023/05/18 03:55:09;;;;;;;0.60;0.50;;;18.90;55.00;;;;;;5079206;28;20164;-81
2023/05/18 03:57:34;;;;;;;0.70;0.60;;;18.90;55.00;;;;;;5095760;28;20171;-82
2023/05/18 04:00:00;;;;;;;0.60;0.60;;;19.00;55.00;;;;;;5114054;28;20163;-82
2023/05/18 04:02:26;;;;;;;0.80;0.68;;;18.90;55.00;;;;;;5095786;28;20180;-81
2023/05/18 04:04:52;;;;;;;0.55;0.55;;;18.90;55.00;;;;;;5095888;28;20217;-84
2023/05/18 04:07:21;;;;;;;0.60;0.60;;;19.00;54.90;;;;;;5113936;28;20542;-82
2023/05/18 04:09:47;;;;;;;0.60;0.60;;;19.00;54.90;;;;;;5095876;28;20641;-81
2023/05/18 04:12:13;;;;;;;0.70;0.50;;;19.00;54.90;;;;;;5095782;28;20160;-82
2023/05/18 04:14:41;;;;;;;0.75;0.60;;;19.00;54.90;;;;;;5078781;28;20540;-81
2023/05/18 04:17:07;;;;;;;1.13;0.70;;;19.00;54.90;;;;;;5095804;28;20186;-81
2023/05/18 04:19:33;;;;;;;1.15;0.40;;;19.00;54.90;;;;;;5095487;28;20618;-81
2023/05/18 04:21:59;;;;;;;0.55;0.55;;;19.00;54.90;;;;;;5078394;28;20223;-82
2023/05/18 04:24:26;;;;;;;0.60;0.50;;;19.00;54.80;;;;;;5080526;28;20640;-82
2023/05/18 04:26:52;;;;;;;0.50;0.50;;;19.00;54.80;;;;;;5102216;28;20175;-81
2023/05/18 04:29:18;;;;;;;0.40;0.40;;;19.00;54.80;;;;;;5085415;28;20195;-81
2023/05/18 04:31:47;;;;;;;0.60;0.50;;;19.00;54.80;;;;;;5085938;28;20264;-82
2023/05/18 04:34:16;;;;;;;0.80;0.65;;;19.00;54.80;;;;;;5102709;28;20171;-82
2023/05/18 04:36:43;;;;;;;0.50;0.50;;;19.00;54.70;;;;;;5120420;28;20289;-82
2023/05/18 04:39:09;;;;;;;0.98;0.70;;;19.10;54.70;;;;;;5102227;28;20171;-81
2023/05/18 04:41:35;;;;;;;0.50;0.50;;;19.10;54.60;;;;;;5120315;28;20161;-82
2023/05/18 04:44:02;;;;;;;0.60;0.60;;;19.00;54.70;;;;;;5102290;28;20649;-82
2023/05/18 04:46:28;;;;;;;0.75;0.65;;;19.10;54.70;;;;;;5102513;28;20159;-82
2023/05/18 04:48:56;;;;;;;0.55;0.43;;;19.10;54.60;;;;;;5085670;28;20159;-82
2023/05/18 04:51:22;;;;;;;0.47;0.47;;;19.10;54.60;;;;;;5102569;28;20145;-82
2023/05/18 04:53:49;;;;;;;0.55;0.55;;;19.10;54.40;;;;;;5120266;28;20568;-82
2023/05/18 04:56:15;;;;;;;0.55;0.50;;;19.10;54.50;;;;;;5120195;28;20191;-82
2023/05/18 04:58:44;;;;;;;0.40;0.40;;;19.10;54.40;;;;;;5102127;28;20221;-83
2023/05/18 05:01:11;;;;;;;0.68;0.50;;;19.10;54.50;;;;;;5102472;28;20154;-82
2023/05/18 05:03:37;;;;;;;0.65;0.55;;;19.10;54.30;;;;;;5120139;28;20282;-81
2023/05/18 05:06:03;;;;;;;0.88;0.77;;;19.20;54.40;;;;;;5119831;28;20236;-81
2023/05/18 05:08:28;;;;;;;0.55;0.55;;;19.20;54.30;;;;;;5101247;28;20782;-81
2023/05/18 05:10:54;;;;;;;0.70;0.70;;;19.20;54.50;;;;;;5119318;28;20634;-81
2023/05/18 05:13:20;;;;;;;0.55;0.50;;;19.20;54.20;;;;;;5119352;28;20509;-81
2023/05/18 05:15:46;;;;;;;1.13;0.50;;;19.10;54.30;;;;;;5100869;28;20168;-81
2023/05/18 05:18:11;;;;;;;0.50;0.50;;;19.20;54.10;;;;;;5101121;28;20160;-81
2023/05/18 05:20:37;;;;;;;0.93;0.65;;;19.20;54.10;;;;;;5101742;28;20531;-81
2023/05/18 05:23:03;;;;;;;0.55;0.55;;;19.30;54.00;;;;;;5119791;28;20215;-81
2023/05/18 05:25:28;;;;;;;0.77;0.50;;;19.30;53.90;;;;;;5084851;28;20168;-81
2023/05/18 05:27:54;;;;;;;0.60;0.60;;;19.30;54.10;;;;;;5101801;28;20509;-81
2023/05/18 05:30:20;;;;;;;0.50;0.50;;;19.30;53.90;;;;;;5120003;28;20152;-81
2023/05/18 05:32:45;;;;;;;0.50;0.45;;;19.30;53.90;;;;;;5119954;28;20534;-81
2023/05/18 05:35:11;;;;;;;0.63;0.52;;;19.30;53.90;;;;;;5101582;28;20210;-81
2023/05/18 05:37:37;;;;;;;1.08;0.68;;;19.30;53.70;;;;;;5097797;28;20537;-81
2023/05/18 05:40:05;;;;;;;0.63;0.52;;;19.40;53.50;;;;;;5098402;28;20172;-81
2023/05/18 05:42:31;;;;;;;0.47;0.47;;;19.40;53.60;;;;;;5098526;28;20180;-81
2023/05/18 05:44:56;;;;;;;0.77;0.55;;;19.40;53.50;;;;;;5116572;28;20507;-81
2023/05/18 05:47:22;;;;;;;0.68;0.40;;;19.40;53.70;;;;;;5098347;28;20517;-81
2023/05/18 05:49:48;;;;;;;1.52;0.55;;;19.30;53.90;;;;;;5116726;28;20156;-81
2023/05/18 05:52:13;;;;;;;0.63;0.55;;;19.30;53.70;;;;;;5081527;28;20164;-81
2023/05/18 05:54:40;;;;;;;0.50;0.50;;;19.40;53.80;;;;;;5116318;28;20163;-81
2023/05/18 05:57:05;;;;;;;0.52;0.52;;;19.40;53.90;;;;;;5116436;28;20483;-81
2023/05/18 05:59:31;;;;;;;0.80;0.60;;;19.40;53.70;;;;;;5097982;28;20179;-81
2023/05/18 06:01:57;;;;;;;0.80;0.50;;;19.40;53.60;;;;;;5116072;28;20495;-81
2023/05/18 06:04:23;;;;;;;0.40;0.40;;;19.40;53.50;;;;;;5098416;28;20225;-81
2023/05/18 06:06:48;;;;;;;0.43;0.40;;;19.40;53.70;;;;;;5116101;28;20152;-81
2023/05/18 06:09:14;;;;;;;0.50;0.47;;;19.40;53.70;;;;;;5098345;28;20255;-81
2023/05/18 06:11:40;;;;;;;1.67;0.60;;;19.40;53.50;;;;;;5097712;28;20259;-81
2023/05/18 06:14:06;;;;;;;0.40;0.40;;;19.40;53.30;;;;;;5116153;28;20231;-81
2023/05/18 06:16:32;;;;;;;0.65;0.52;;;19.40;53.20;;;;;;5116004;28;20258;-81
2023/05/18 06:18:57;;;;;;;0.85;0.60;;;19.40;53.20;;;;;;5097653;28;20168;-81
2023/05/18 06:21:23;;;;;;;0.65;0.45;;;19.50;53.00;;;;;;5115788;28;20211;-82
2023/05/18 06:23:49;;;;;;;0.80;0.50;;;19.50;53.10;;;;;;5098213;28;20191;-82
2023/05/18 06:26:15;;;;;;;0.50;0.50;;;19.40;53.20;;;;;;5115778;28;20149;-82
2023/05/18 06:28:41;;;;;;;0.73;0.40;;;19.40;53.20;;;;;;5098800;28;20208;-82
2023/05/18 06:31:07;;;;;;;1.05;0.60;;;19.40;53.30;;;;;;5082041;28;20172;-82
2023/05/18 06:33:33;;;;;;;0.50;0.50;;;19.30;53.50;;;;;;5115906;28;20152;-82
2023/05/18 06:35:59;;;;;;;1.23;0.75;;;19.30;53.70;;;;;;5081049;28;20176;-84
2023/05/18 06:38:25;;;;;;;5.68;0.60;;;19.30;53.50;;;;;;5097868;28;20172;-81
2023/05/18 06:40:50;;;;;;;0.98;0.65;;;19.40;53.40;;;;;;5080671;28;20172;-82
2023/05/18 06:43:16;;;;;;;1.13;0.55;;;19.30;53.50;;;;;;5096907;28;20207;-82
2023/05/18 06:45:42;;;;;;;2.47;0.52;;;19.30;53.20;;;;;;5097631;28;20163;-82
2023/05/18 06:48:07;;;;;;;1.50;0.70;;;19.30;52.90;;;;;;5096859;28;20205;-83
2023/05/18 06:50:33;;;;;;;1.83;0.70;;;19.40;53.00;;;;;;5097638;28;20541;-82
2023/05/18 06:53:03;;;;;;;1.92;0.60;;;19.30;52.30;;;;;;5099326;28;20148;-83
2023/05/18 06:55:29;;;;;;;0.60;0.50;;;19.40;52.60;;;;;;5100894;28;20175;-84
2023/05/18 06:58:02;;;;;;;0.68;0.50;;;19.30;52.20;;;;;;5101845;28;20155;-85
2023/05/18 07:00:33;;;;;;;0.60;0.60;;;19.30;51.80;;;;;;5104826;28;20164;-86
2023/05/18 07:03:00;;;;;;;2.17;0.60;;;19.30;52.10;;;;;;5069918;28;20215;-85
2023/05/18 07:05:26;;;;;;;0.70;0.70;;;19.20;52.30;;;;;;5067671;28;20661;-85
2023/05/18 07:07:53;;;;;;;0.65;0.50;;;19.10;52.10;;;;;;5084786;28;20196;-85
2023/05/18 07:10:21;;;;;;;2.80;0.80;;;19.10;52.40;;;;;;5068655;28;20161;-85
2023/05/18 07:12:48;;;;;;;0.47;0.35;;;19.10;52.10;;;;;;5070567;28;20363;-86
2023/05/18 07:15:16;;;;;;;0.50;0.40;;;19.10;52.40;;;;;;5083527;28;20172;-85
2023/05/18 07:17:57;;;;;;;4.30;0.60;;;19.00;52.20;;;;;;5045871;28;20178;-87
2023/05/18 07:20:52;;;;;;;0.50;0.50;;;19.00;52.30;;;;;;5013868;28;20169;-84
2023/05/18 07:23:23;;;;;;;1.25;0.50;;;19.00;52.10;;;;;;4998875;28;20230;-86
2023/05/18 07:25:52;;;;;;;0.73;0.50;;;18.90;51.80;;;;;;4971316;28;20228;-85
2023/05/18 07:28:19;;;;;;;0.70;0.60;;;19.00;51.70;;;;;;4968286;28;20240;-85
2023/05/18 07:30:45;;;;;;;1.83;0.52;;;19.00;51.80;;;;;;4969393;28;20265;-85
2023/05/18 07:33:11;;;;;;;0.75;0.55;;;18.90;51.80;;;;;;4993258;28;20214;-84
2023/05/18 07:35:43;;;;;;;1.33;0.52;;;18.90;51.70;;;;;;5011165;28;20223;-83
2023/05/18 07:38:08;;;;;;;1.92;0.63;;;18.90;51.70;;;;;;4996468;28;20226;-84
2023/05/18 07:40:34;;;;;;;2.10;0.60;;;18.90;51.60;;;;;;4995078;28;20183;-83
2023/05/18 07:43:00;;;;;;;1.00;0.60;;;18.90;51.10;;;;;;4991695;28;20279;-83
2023/05/18 07:45:26;;;;;;;0.77;0.40;;;18.90;51.70;;;;;;5004427;28;20183;-83
2023/05/18 07:47:54;;;;;;;0.60;0.60;;;18.90;51.40;;;;;;4996911;28;20586;-83
2023/05/18 07:50:20;;;;;;;0.90;0.60;;;18.80;51.10;;;;;;5044982;28;20329;-82
2023/05/18 07:52:47;;;;;;;2.42;0.40;;;18.80;51.10;;;;;;5062778;28;20193;-83
2023/05/18 07:55:13;;;;;;;1.20;0.50;;;18.90;50.70;;;;;;5051494;28;20173;-82
2023/05/18 07:57:39;;;;;;;0.85;0.50;;;18.90;50.80;;;;;;5057499;28;20268;-83
2023/05/18 08:00:05;;;;;;;3.03;0.60;;;18.80;50.80;;;;;;5059310;28;20185;-83
2023/05/18 08:02:33;;;;;;;0.47;0.47;;;18.80;50.80;;;;;;5046627;28;20189;-83
2023/05/18 08:04:58;;;;;;;0.85;0.50;;;18.90;51.20;;;;;;5079795;28;20235;-83
2023/05/18 08:07:25;;;;;;;0.82;0.63;;;18.90;50.70;;;;;;5072088;28;20247;-83
2023/05/18 08:09:51;;;;;;;2.70;0.68;;;18.90;50.90;;;;;;5104149;28;20149;-83
2023/05/18 08:12:18;;;;;;;1.67;0.60;;;18.90;50.70;;;;;;5103675;28;20163;-82
2023/05/18 08:14:44;;;;;;;1.27;0.50;;;18.90;50.90;;;;;;5103342;28;20526;-83
2023/05/18 08:17:10;;;;;;;0.88;0.60;;;18.90;50.30;;;;;;5101848;28;20618;-83
2023/05/18 08:19:36;;;;;;;0.63;0.60;;;19.00;50.50;;;;;;5102881;28;20209;-83
2023/05/18 08:22:02;;;;;;;0.90;0.57;;;18.90;50.40;;;;;;5072343;28;20224;-83
2023/05/18 08:24:27;;;;;;;1.00;0.70;;;18.90;50.70;;;;;;5065811;28;20222;-85
2023/05/18 08:26:56;;;;;;;2.35;0.68;;;18.90;50.30;;;;;;5084255;28;20206;-84
2023/05/18 08:29:22;;;;;;;1.40;0.70;;;19.00;50.30;;;;;;5085581;28;20167;-83
2023/05/18 08:31:51;;;;;;;1.20;0.60;;;18.90;50.30;;;;;;5083649;28;20183;-83
2023/05/18 08:34:17;;;;;;;2.80;0.70;;;18.90;50.10;;;;;;5078181;28;20624;-82
2023/05/18 08:36:44;;;;;;;0.88;0.60;;;18.90;50.20;;;;;;5050768;28;20177;-84
2023/05/18 08:39:10;;;;;;;0.40;0.40;;;19.00;50.30;;;;;;5060271;28;20161;-82
2023/05/18 08:41:59;;;;;;;2.42;0.70;;;18.90;49.80;;;;;;5076751;28;20654;-83
2023/05/18 08:44:28;;;;;;;0.95;0.70;;;18.90;49.70;;;;;;5100464;28;20216;-82
2023/05/18 08:46:55;;;;;;;1.08;0.70;;;19.00;49.70;;;;;;5067804;28;20165;-81
2023/05/18 08:49:24;;;;;;;0.60;0.60;;;19.00;50.00;;;;;;5084302;28;20161;-82
2023/05/18 08:51:57;;;;;;;1.10;0.57;;;19.00;48.90;;;;;;5067049;28;20157;-84
2023/05/18 08:54:22;;;;;;;1.73;0.60;;;19.00;48.80;;;;;;5064472;28;20165;-84
2023/05/18 08:56:48;;;;;;;0.77;0.70;;;19.00;49.00;;;;;;5081563;28;20192;-82
2023/05/18 08:59:16;;;;;;;2.00;0.63;;;19.00;48.50;;;;;;5081999;28;20157;-82
2023/05/18 09:01:42;;;;;;;2.67;0.75;;;19.00;49.00;;;;;;5066282;28;20195;-83
2023/05/18 09:04:12;;;;;;;0.70;0.55;;;19.00;48.70;;;;;;5082572;28;20177;-82
2023/05/18 09:06:39;;;;;;;3.05;0.75;;;19.00;48.60;;;;;;5064677;28;20211;-83
2023/05/18 09:09:06;;;;;;;1.65;0.60;;;19.00;49.10;;;;;;5062518;28;20523;-83
2023/05/18 09:11:32;;;;;;;1.05;0.60;;;19.00;49.00;;;;;;5098473;28;20167;-80
2023/05/18 09:14:11;;;;;;;0.50;0.50;;;18.90;48.90;;;;;;5068292;28;20645;-83
2023/05/18 09:16:49;;;;;;;1.35;0.77;;;19.00;49.30;;;;;;5068213;28;20161;-83
2023/05/18 09:19:15;;;;;;;0.80;0.60;;;18.90;49.00;;;;;;5069253;28;20157;-82
2023/05/18 09:21:46;;;;;;;3.92;0.70;;;18.90;48.90;;;;;;5081682;28;20702;-82
2023/05/18 09:24:19;;;;;;;0.50;0.50;;;18.90;48.50;;;;;;5044256;28;20273;-84
2023/05/18 09:26:47;;;;;;;0.80;0.70;;;19.00;48.20;;;;;;5045846;28;20177;-83
2023/05/18 09:29:17;;;;;;;1.95;0.70;;;18.90;48.60;;;;;;5046879;28;20627;-82
2023/05/18 09:31:45;;;;;;;1.67;0.60;;;18.90;48.60;;;;;;5066816;28;20227;-83
2023/05/18 09:34:18;;;;;;;0.90;0.70;;;18.90;48.50;;;;;;5082795;28;20260;-85
2023/05/18 09:40:06;;;;;;;1.35;0.68;;;18.90;48.70;;;;;;5076445;28;20503;-83
2023/05/18 09:43:55;;;;;;;;;;;;;;;;;;;;;
2023/05/18 09:46:19;;;;;;;1.13;0.60;;;18.90;48.70;;;;;;4959670;29;20696;-84
2023/05/18 09:48:46;;;;;;;0.68;0.55;;;19.00;48.40;;;;;;4941861;28;20266;-84
2023/05/18 09:51:16;;;;;;;1.55;0.82;;;19.00;48.80;;;;;;4963967;28;20187;-82
2023/05/18 09:54:15;;;;;;;3.53;1.17;;;18.90;48.70;;;;;;4967943;28;20195;-83
2023/05/18 09:57:09;;;;;;;1.17;0.63;;;19.00;48.60;;;;;;5006335;28;20187;-85
2023/05/18 09:59:35;;;;;;;0.57;0.57;;;19.00;48.60;;;;;;4958296;29;20264;-84
2023/05/18 10:02:14;;;;;;;;;;;;;;;;;;;;;
2023/05/18 10:05:00;;;;;;;2.92;0.80;;;19.00;48.50;;;;;;4938606;29;20341;-84
2023/05/18 10:07:28;;;;;;;0.60;0.50;;;18.90;48.40;;;;;;4961364;29;20164;-85
2023/05/18 10:10:14;;;;;;;2.47;0.55;;;19.00;48.40;;;;;;4944668;29;20209;-83
2023/05/18 10:12:42;;;;;;;0.60;0.60;;;19.10;48.00;;;;;;4962061;29;20177;-83
2023/05/18 10:15:53;;;;;;;0.82;0.55;;;19.00;48.10;;;;;;4944261;29;20214;-83
2023/05/18 10:18:25;;;;;;;0.73;0.73;;;19.00;48.50;;;;;;4897093;29;20211;-83
2023/05/18 10:21:56;;;;;;;1.55;0.63;;;19.00;48.00;;;;;;4884460;29;20733;-85
2023/05/18 10:24:22;;;;;;;1.50;0.50;;;19.00;47.50;;;;;;4867844;29;20200;-84
2023/05/18 10:26:59;;;;;;;2.50;0.60;;;19.00;47.90;;;;;;4856705;29;20650;-83
2023/05/18 10:29:36;;;;;;;0.65;0.60;;;19.00;47.80;;;;;;4871714;29;20697;-83
2023/05/18 10:32:25;;;;;;;0.85;0.63;;;19.00;48.00;;;;;;4930711;29;20222;-83
2023/05/18 10:35:39;;;;;;;1.67;0.70;;;19.00;47.90;;;;;;4924603;29;20198;-82
2023/05/18 10:38:43;;;;;;;2.40;0.70;;;19.00;48.10;;;;;;4872890;29;20648;-82
2023/05/18 10:41:15;;;;;;;1.70;0.70;;;19.00;47.80;;;;;;4843776;29;20189;-83
2023/05/18 10:43:45;;;;;;;1.92;0.80;;;19.00;47.80;;;;;;4841524;29;20231;-83
2023/05/18 10:46:44;;;;;;;0.90;0.70;;;19.00;47.80;;;;;;4836030;29;20186;-82
2023/05/18 10:49:43;;;;;;;0.75;0.63;;;19.00;47.70;;;;;;4885972;29;20272;-82
2023/05/18 10:52:25;;;;;;;2.20;0.80;;;19.00;47.70;;;;;;4870407;29;20187;-82
2023/05/18 10:55:08;;;;;;;0.90;0.70;;;19.00;47.80;;;;;;4894712;29;20183;-83
2023/05/18 10:58:19;;;;;;;0.93;0.60;;;19.00;47.70;;;;;;4890652;29;20251;-81
2023/05/18 11:00:54;;;;;;;2.17;0.70;;;19.10;47.70;;;;;;4821849;29;20260;-84
2023/05/18 11:03:24;;;;;;;1.85;0.60;;;19.00;47.60;;;;;;4741156;30;20678;-84
2023/05/18 11:07:36;;;;;;;1.38;0.70;;;19.10;47.40;;;;;;4768180;30;20213;-84
2023/05/18 11:10:27;;;;;;;0.90;0.68;;;19.10;47.70;;;;;;4788252;30;20253;-83
2023/05/18 11:13:18;;;;;;;;;;;;;;;;;;;;;
2023/05/18 11:16:41;;;;;;;0.68;0.60;;;19.00;47.60;;;;;;4806204;29;20217;-82
2023/05/18 11:19:37;;;;;;;1.00;0.75;;;19.00;47.50;;;;;;4824611;29;20171;-83
2023/05/18 11:22:13;;;;;;;0.88;0.80;;;19.00;47.00;;;;;;4843400;29;20785;-82
2023/05/18 11:24:50;;;;;;;0.52;0.52;;;19.10;47.60;;;;;;4897775;29;20187;-83
2023/05/18 11:27:19;;;;;;;1.33;0.73;;;19.10;47.20;;;;;;4901393;29;20202;-81
2023/05/18 11:29:47;;;;;;;1.40;0.80;;;19.10;47.10;;;;;;4983443;28;20208;-81
2023/05/18 11:32:22;;;;;;;0.50;0.50;;;19.20;47.00;;;;;;4983593;28;20192;-81
2023/05/18 11:34:52;;;;;;;0.85;0.50;;;19.20;46.80;;;;;;4981884;28;20336;-81
2023/05/18 11:37:46;;;;;;;2.17;0.70;;;19.30;46.90;;;;;;4985541;28;20203;-82
2023/05/18 11:40:49;;;;;;;4.07;0.73;;;19.20;46.80;;;;;;4990871;28;20304;-81
2023/05/18 11:43:28;;;;;;;1.00;0.52;;;19.20;46.80;;;;;;5020782;28;20265;-81
2023/05/18 11:45:58;;;;;;;0.80;0.80;;;19.20;46.60;;;;;;5021572;28;20163;-80
2023/05/18 11:48:26;;;;;;;1.02;0.75;;;19.10;46.90;;;;;;5020416;28;20240;-82
2023/05/18 11:50:53;;;;;;;1.40;0.60;;;19.20;46.90;;;;;;5003150;28;20218;-82
2023/05/18 11:53:22;;;;;;;1.65;0.70;;;19.20;47.00;;;;;;5003624;28;20207;-80
2023/05/18 11:55:53;;;;;;;1.52;0.57;;;19.20;46.50;;;;;;4973424;28;20180;-81
2023/05/18 11:58:20;;;;;;;0.95;0.60;;;19.20;46.60;;;;;;4971209;28;20629;-81
2023/05/18 12:00:52;;;;;;;1.23;0.63;;;19.20;46.10;;;;;;5013397;28;20185;-82
2023/05/18 12:03:23;;;;;;;4.00;0.80;;;19.10;46.30;;;;;;5028653;28;20269;-80
2023/05/18 12:05:49;;;;;;;1.50;0.60;;;19.10;46.40;;;;;;5025170;28;20657;-81
2023/05/18 12:08:18;;;;;;;1.40;0.68;;;19.10;46.30;;;;;;5026834;28;20155;-80
2023/05/18 12:10:46;;;;;;;0.52;0.52;;;19.10;46.50;;;;;;5042369;28;20320;-81
2023/05/18 12:13:15;;;;;;;0.80;0.80;;;19.20;46.50;;;;;;5026468;28;20155;-83
2023/05/18 12:15:52;;;;;;;2.92;0.80;;;19.20;46.40;;;;;;5071311;28;20192;-82
2023/05/18 12:18:18;;;;;;;3.10;0.70;;;19.20;46.30;;;;;;5099936;28;20183;-78
2023/05/18 12:20:45;;;;;;;0.73;0.60;;;19.20;46.10;;;;;;5116821;28;20161;-81
2023/05/18 12:23:11;;;;;;;1.08;0.60;;;19.20;46.20;;;;;;5137732;27;20215;-80
2023/05/18 12:26:01;;;;;;;3.47;0.70;;;19.20;46.40;;;;;;5139171;28;20166;-78
2023/05/18 12:28:27;;;;;;;2.28;0.57;;;19.20;46.10;;;;;;5123221;28;20273;-80
2023/05/18 12:30:55;;;;;;;1.15;0.70;;;19.30;46.10;;;;;;5103671;28;20233;-81
2023/05/18 12:33:21;;;;;;;0.60;0.60;;;19.20;46.20;;;;;;5040812;28;20185;-85
2023/05/18 12:35:47;;;;;;;1.13;0.75;;;19.30;46.00;;;;;;5024796;28;20179;-86
2023/05/18 12:38:13;;;;;;;2.35;0.68;;;19.30;45.90;;;;;;5021952;28;20482;-84
2023/05/18 12:40:47;;;;;;;2.60;1.02;;;19.30;46.20;;;;;;5054998;28;20501;-85
2023/05/18 12:43:14;;;;;;;2.08;0.80;;;19.30;46.00;;;;;;5075595;28;20193;-85
2023/05/18 12:45:40;;;;;;;1.40;0.60;;;19.30;46.30;;;;;;5058134;28;20505;-79
2023/05/18 12:48:07;;;;;;;3.33;0.90;;;19.30;46.50;;;;;;5077054;28;20150;-81
2023/05/18 12:50:33;;;;;;;1.73;0.80;;;19.30;46.30;;;;;;5074098;28;20177;-81
2023/05/18 12:53:00;;;;;;;1.80;0.60;;;19.30;46.00;;;;;;5073414;28;20188;-81
2023/05/18 12:55:26;;;;;;;1.02;0.70;;;19.30;45.90;;;;;;5054390;28;20169;-82
2023/05/18 12:58:01;;;;;;;2.72;0.70;;;19.40;45.90;;;;;;5054394;28;20170;-81
2023/05/18 13:00:32;;;;;;;1.50;0.60;;;19.20;45.80;;;;;;5071256;28;20180;-81
2023/05/18 13:03:14;;;;;;;1.65;0.75;;;19.30;45.70;;;;;;5071473;28;20201;-81
2023/05/18 13:05:41;;;;;;;3.90;0.70;;;19.30;45.50;;;;;;5056985;28;20168;-81
2023/05/18 13:08:09;;;;;;;1.63;0.60;;;19.30;45.50;;;;;;5073745;28;20156;-81
2023/05/18 13:10:37;;;;;;;0.80;0.70;;;19.20;45.60;;;;;;5073828;28;20173;-80